createdAt,value
2022-10-06T00:01:21.525Z,14.96
2022-10-06T00:03:48.103Z,14.59
2022-10-06T00:06:18.639Z,14.47
2022-10-06T00:08:58.255Z,14.57
2022-10-06T00:11:25.250Z,14.36
2022-10-06T00:14:31.137Z,14.74
2022-10-06T00:16:57.712Z,14.71
2022-10-06T00:19:29.383Z,14.91
2022-10-06T00:21:56.016Z,14.83
2022-10-06T00:24:32.309Z,14.64
2022-10-06T00:27:08.331Z,14.45
2022-10-06T00:29:42.469Z,14.55
2022-10-06T00:32:11.997Z,14.56
2022-10-06T00:34:38.586Z,14.48
2022-10-06T00:37:07.665Z,14.49
2022-10-06T00:39:34.152Z,14.58
2022-10-06T00:42:01.011Z,14.62
2022-10-06T00:44:33.177Z,14.56
2022-10-06T00:46:59.798Z,14.73
2022-10-06T00:49:31.027Z,14.70
2022-10-06T00:52:11.360Z,14.33
2022-10-06T00:54:39.447Z,14.41
2022-10-06T00:57:06.826Z,14.54
2022-10-06T00:59:34.482Z,14.48
2022-10-06T01:02:04.304Z,14.85
2022-10-06T01:04:33.794Z,14.99
2022-10-06T01:07:04.531Z,14.66
2022-10-06T01:09:48.640Z,14.77
2022-10-06T01:12:16.783Z,14.80
2022-10-06T01:14:43.579Z,14.93
2022-10-06T01:17:37.368Z,14.90
2022-10-06T01:20:11.999Z,14.89
2022-10-06T01:22:55.736Z,14.68
2022-10-06T01:25:50.318Z,14.70
2022-10-06T01:28:19.046Z,14.85
2022-10-06T01:31:12.641Z,14.91
2022-10-06T01:33:47.587Z,14.83
2022-10-06T01:36:21.684Z,14.84
2022-10-06T01:38:48.243Z,14.77
2022-10-06T01:41:14.883Z,15.02
2022-10-06T01:43:41.375Z,14.77
2022-10-06T01:46:08.007Z,14.73
2022-10-06T01:48:35.883Z,14.94
2022-10-06T01:51:02.407Z,14.90
2022-10-06T01:53:32.106Z,14.67
2022-10-06T01:55:59.542Z,14.85
2022-10-06T01:58:26.546Z,14.83
2022-10-06T02:00:54.208Z,14.81
2022-10-06T02:03:20.741Z,14.70
2022-10-06T02:05:47.258Z,14.84
2022-10-06T02:08:13.757Z,15.05
2022-10-06T02:10:40.369Z,14.74
2022-10-06T02:13:06.925Z,14.87
2022-10-06T02:15:33.507Z,14.72
2022-10-06T02:18:00.062Z,14.78
2022-10-06T02:20:26.696Z,14.82
2022-10-06T02:22:53.259Z,14.89
2022-10-06T02:25:19.789Z,14.73
2022-10-06T02:27:47.324Z,14.76
2022-10-06T02:30:16.866Z,14.81
2022-10-06T02:32:44.171Z,14.64
2022-10-06T02:35:12.877Z,14.76
2022-10-06T02:37:41.469Z,14.77
2022-10-06T02:40:09.020Z,14.65
2022-10-06T02:42:37.495Z,14.74
2022-10-06T02:45:08.069Z,14.83
2022-10-06T02:47:36.561Z,14.84
2022-10-06T02:50:06.023Z,15.01
2022-10-06T02:52:35.258Z,14.82
2022-10-06T02:55:09.277Z,15.00
2022-10-06T02:57:47.736Z,14.75
2022-10-06T03:00:15.636Z,14.83
2022-10-06T03:03:27.801Z,14.63
2022-10-06T03:06:06.396Z,14.84
2022-10-06T03:08:33.132Z,14.88
2022-10-06T03:11:01.055Z,15.09
2022-10-06T03:13:28.040Z,14.81
2022-10-06T03:15:57.083Z,14.66
2022-10-06T03:18:23.873Z,14.81
2022-10-06T03:20:51.055Z,15.18
2022-10-06T03:23:27.867Z,14.85
2022-10-06T03:26:08.728Z,14.88
2022-10-06T03:28:35.306Z,14.90
2022-10-06T03:31:03.191Z,14.74
2022-10-06T03:33:30.557Z,15.02
2022-10-06T03:36:15.644Z,14.89
2022-10-06T03:38:43.128Z,14.89
2022-10-06T03:41:13.477Z,15.02
2022-10-06T03:43:42.592Z,14.85
2022-10-06T03:46:20.346Z,14.77
2022-10-06T03:48:48.808Z,14.87
2022-10-06T03:51:29.877Z,14.79
2022-10-06T03:53:59.563Z,15.02
2022-10-06T03:56:35.281Z,14.83
2022-10-06T03:59:04.464Z,14.82
2022-10-06T04:01:39.724Z,15.11
2022-10-06T04:04:06.923Z,15.09
2022-10-06T04:06:36.486Z,15.13
2022-10-06T04:09:05.366Z,14.82
2022-10-06T04:11:34.628Z,14.68
2022-10-06T04:14:03.585Z,14.93
2022-10-06T04:16:32.771Z,14.90
2022-10-06T04:19:01.570Z,14.86
2022-10-06T04:21:30.475Z,14.87
2022-10-06T04:23:58.718Z,14.71
2022-10-06T04:26:31.246Z,15.02
2022-10-06T04:29:08.384Z,15.11
2022-10-06T04:31:37.318Z,14.97
2022-10-06T04:34:09.267Z,15.05
2022-10-06T04:40:43.593Z,15.19
2022-10-06T04:43:10.057Z,14.94
2022-10-06T04:45:36.559Z,14.87
2022-10-06T04:48:03.162Z,14.88
2022-10-06T04:50:29.593Z,14.84
2022-10-06T04:52:56.819Z,14.73
2022-10-06T04:55:24.321Z,14.59
2022-10-06T04:58:19.518Z,14.62
2022-10-06T05:00:50.882Z,14.70
2022-10-06T05:03:17.607Z,14.71
2022-10-06T05:05:49.704Z,14.62
2022-10-06T05:08:20.509Z,14.54
2022-10-06T05:11:32.107Z,14.57
2022-10-06T05:17:25.079Z,14.63
2022-10-06T05:19:54.453Z,14.66
2022-10-06T05:26:12.437Z,14.16
2022-10-06T05:28:57.675Z,14.25
2022-10-06T05:39:04.942Z,14.25
2022-10-06T05:41:33.231Z,14.13
2022-10-06T05:44:00.279Z,14.32
2022-10-06T05:46:29.661Z,14.39
2022-10-06T05:48:58.615Z,14.29
2022-10-06T05:51:30.665Z,14.62
2022-10-06T05:54:01.044Z,14.25
2022-10-06T05:56:30.450Z,14.08
2022-10-06T05:58:58.115Z,14.11
2022-10-06T06:01:30.372Z,14.13
2022-10-06T06:04:00.480Z,14.02
2022-10-06T06:06:52.750Z,14.03
2022-10-06T06:09:21.344Z,13.94
2022-10-06T06:11:54.881Z,14.11
2022-10-06T06:25:25.367Z,14.43
2022-10-06T06:28:03.600Z,14.07
2022-10-06T06:30:58.673Z,13.87
2022-10-06T06:33:44.017Z,13.92
2022-10-06T07:02:39.106Z,13.45
2022-10-06T07:05:09.692Z,13.89
2022-10-06T07:07:43.883Z,13.75
2022-10-06T07:10:18.188Z,13.61
2022-10-06T07:15:56.279Z,13.58
2022-10-06T07:18:47.939Z,13.76
2022-10-06T07:24:47.624Z,14.19
2022-10-06T07:27:18.757Z,14.08
2022-10-06T07:30:08.095Z,13.99
2022-10-06T07:32:34.673Z,13.92
2022-10-06T07:35:27.009Z,14.26
2022-10-06T07:45:52.243Z,14.32
2022-10-06T09:05:01.208Z,14.36
2022-10-06T09:07:49.650Z,14.43
2022-10-06T09:11:21.778Z,14.38
2022-10-06T09:14:32.131Z,14.53
2022-10-06T09:21:11.704Z,14.99
2022-10-06T09:24:31.989Z,15.02
2022-10-06T09:37:38.653Z,14.80
2022-10-06T10:04:08.532Z,15.46
2022-10-06T13:26:36.226Z,17.77
2022-10-06T13:37:00.976Z,17.27
2022-10-06T13:42:24.559Z,17.73
2022-10-06T13:44:58.694Z,17.79
2022-10-06T13:47:29.039Z,17.76
2022-10-06T13:50:10.610Z,17.76
2022-10-06T13:52:40.223Z,17.60
2022-10-06T13:55:33.520Z,17.88
2022-10-06T13:58:06.545Z,17.88
2022-10-06T14:00:51.294Z,17.77
2022-10-06T14:03:24.661Z,17.78
2022-10-06T14:06:04.869Z,17.82
2022-10-06T14:08:31.590Z,17.42
2022-10-06T14:11:03.808Z,17.59
2022-10-06T14:17:35.668Z,17.70
2022-10-06T14:20:25.046Z,17.59
2022-10-06T14:22:51.510Z,17.60
2022-10-06T14:26:17.237Z,17.92
2022-10-06T14:28:55.143Z,17.54
2022-10-06T14:42:17.966Z,17.83
2022-10-06T14:45:25.457Z,17.61
2022-10-06T14:47:51.948Z,17.35
2022-10-06T14:50:19.767Z,17.58
2022-10-06T14:53:11.351Z,17.40
2022-10-06T14:56:24.479Z,17.95
2022-10-06T14:59:13.016Z,17.40
2022-10-06T15:01:44.363Z,17.59
2022-10-06T15:04:18.586Z,17.27
2022-10-06T15:07:05.098Z,17.02
2022-10-06T15:09:32.585Z,17.47
2022-10-06T15:12:02.431Z,17.32
2022-10-06T15:14:32.101Z,17.19
2022-10-06T15:17:02.232Z,17.30
2022-10-06T15:20:37.960Z,17.23
2022-10-06T15:23:07.073Z,16.96
2022-10-06T15:26:36.162Z,16.95
2022-10-06T15:29:23.181Z,16.66
2022-10-06T15:31:55.369Z,16.95
2022-10-06T15:34:25.490Z,16.94
2022-10-06T15:36:54.339Z,16.80
2022-10-06T15:39:23.948Z,16.48
2022-10-06T15:42:00.474Z,16.60
2022-10-06T15:47:48.819Z,16.49
2022-10-06T15:50:19.008Z,16.58
2022-10-06T15:52:45.944Z,16.44
2022-10-06T15:55:12.382Z,16.52
2022-10-06T15:57:38.948Z,16.19
2022-10-06T16:00:06.126Z,15.47
2022-10-06T16:02:36.588Z,15.72
2022-10-06T16:05:03.501Z,15.90
2022-10-06T16:07:34.936Z,15.32
2022-10-06T16:13:52.753Z,14.40
2022-10-06T16:16:19.392Z,14.71
2022-10-06T16:18:46.238Z,15.13
2022-10-06T16:21:12.781Z,14.71
2022-10-06T16:23:45.674Z,14.59
2022-10-06T16:26:12.798Z,14.45
2022-10-06T16:41:06.767Z,13.93
2022-10-06T16:44:27.080Z,13.26
2022-10-06T16:47:36.127Z,13.27
2022-10-06T16:57:27.171Z,12.91
2022-10-06T17:00:26.253Z,12.91
2022-10-06T17:02:59.543Z,13.17
2022-10-06T17:12:07.241Z,12.23
2022-10-06T17:14:53.180Z,12.55
2022-10-06T17:18:15.784Z,12.77
2022-10-06T17:21:15.602Z,12.34
2022-10-06T17:24:28.941Z,12.23
2022-10-06T17:27:18.803Z,12.30
2022-10-06T17:36:57.266Z,12.10
2022-10-06T17:39:35.566Z,11.73
2022-10-06T20:35:41.180Z,9.11
2022-10-06T20:38:09.272Z,8.94
2022-10-06T20:52:12.116Z,8.60
2022-10-06T22:20:05.531Z,8.11
2022-10-06T22:22:32.294Z,8.27
2022-10-06T22:24:59.439Z,8.21
2022-10-06T22:27:26.158Z,8.32
2022-10-06T22:29:52.643Z,8.28
2022-10-06T22:32:19.797Z,7.71
2022-10-06T22:34:46.293Z,7.78
2022-10-06T22:37:12.942Z,8.27
2022-10-06T22:39:39.540Z,8.09
2022-10-06T22:42:06.246Z,7.98
2022-10-06T22:44:32.773Z,8.14
2022-10-06T22:46:59.512Z,8.39
2022-10-06T22:49:26.100Z,8.17
2022-10-06T22:51:52.673Z,7.67
2022-10-06T22:54:19.771Z,7.64
2022-10-06T22:56:46.369Z,8.12
2022-10-06T22:59:13.063Z,8.45
2022-10-06T23:01:39.941Z,8.52
2022-10-06T23:04:06.502Z,8.08
2022-10-06T23:06:33.749Z,8.05
2022-10-06T23:09:00.300Z,8.18
2022-10-06T23:11:27.346Z,7.89
2022-10-06T23:13:54.129Z,8.05
2022-10-06T23:16:21.121Z,8.05
2022-10-06T23:18:48.555Z,8.10
2022-10-06T23:21:21.808Z,7.65
2022-10-06T23:23:51.046Z,7.95
2022-10-06T23:26:19.095Z,7.90
2022-10-06T23:28:47.057Z,7.94
2022-10-06T23:31:13.682Z,8.00
2022-10-06T23:33:40.276Z,7.46
2022-10-06T23:36:11.923Z,8.07
2022-10-06T23:38:39.451Z,8.12
2022-10-06T23:41:06.857Z,8.09
2022-10-06T23:43:33.834Z,8.13
2022-10-06T23:46:01.056Z,8.14
2022-10-06T23:48:27.809Z,7.84
2022-10-06T23:51:02.583Z,7.74
2022-10-06T23:53:30.948Z,7.90
2022-10-06T23:55:58.409Z,8.24
2022-10-06T23:58:25.351Z,7.58
